Tiempo atmosférico en la estación meteorológica de Vitoria Gasteiz Aeropuerto Foronda, Araba/Álava (513 m.)



Fecha
DESCASC
Temp. máxima en grados centígrados (hora)
DESCASC
Temp. mínima en grados centígrados (hora)
DESCASC
Temp. media en grados centígrados
DESCASC
Racha de viento máxima en m/sg (hora)
DESCASC
Velocidad máxima media en intervalos de 10 minutos(hora)
DESCASC
Precipitaciones diarias en mm
DESCASC
Precipitaciones de 00:00 a 06:00 en mm
DESCASC
Precipitaciones de 06:00 a 12:00 en mm
DESCASC
Precipitaciones de 12:00 a 18:00 en mm
DESCASC
Precipitaciones de 18:00 a 24:00 en mm
DESCASC

Gráficas

Temp. máximas Temp. mínimas Temp. medias Precipitaciones Rachas de viento máximas Velocidades máximas media en intervalos de 10 minutos

Datos horarios

Fecha y hora oficial Temperatura (ºC) Velocidad del viento (km/h) Dirección del viento Racha (km/h) Dirección de racha Precipitación (mm) Presión (hPa) Tendencia (hPa) Humedad (%)
2019-06-24 23:00:00 16 8 Este 13 Nordeste 0 958.2 2.8 96
2019-06-24 22:00:00 16.8 13 Nordeste 21 Norte 0 957.2 2.8 93
2019-06-24 21:00:00 18.7 15 Norte 22 Norte 0 956.2 2.3 86
2019-06-24 20:00:00 21 8 Noroeste 28 Oeste 0 955.4 1.8 80
2019-06-24 19:00:00 24.1 12 Noroeste 35 Nordeste 0 954.4 0.9 70
2019-06-24 18:00:00 29.7 10 Este 26 Sudeste 0 953.9 -0.2 36
2019-06-24 17:00:00 30.1 18 Este 35 Sudeste 0 953.6 -0.9 34
2019-06-24 16:00:00 29.4 14 Sudeste 32 Sudeste 0 953.5 -1.2 38
2019-06-24 15:00:00 27.5 11 Sudeste 26 Sur 0 954.1 -0.6 42
2019-06-24 14:00:00 26.4 13 Sudeste 22 Sudeste 0 954.5 -0.6 43
2019-06-24 13:00:00 26.6 6 Oeste 13 Noroeste 0 954.7 -0.2 47
2019-06-24 12:00:00 26.1 0 Calma 17 Este 0 954.7 -0.3 45
2019-06-24 11:00:00 24.5 0 Calma 11 Oeste 0 955.1 0.1 52
2019-06-24 10:00:00 20.7 0 Calma 11 Nordeste 0 954.9 -0.2 73
2019-06-24 09:00:00 17.2 0 Calma 5 Oeste 0 955 0.1 91
2019-06-24 08:00:00 15.9 0 Calma -- -- 0 955 0.2 95
2019-06-24 07:00:00 14.5 0 Calma 11 Este 0 955.1 0.3 98
2019-06-24 06:00:00 14.5 0 Calma 9 Nordeste 0 954.9 0.2 97
2019-06-24 05:00:00 15.1 5 Este 9 Este 0 954.8 0.2 96
2019-06-24 04:00:00 15.7 0 Calma -- -- 0 954.8 -0.2 95
2019-06-24 03:00:00 16.4 0 Calma -- -- 0 954.7 -0.6 96
2019-06-24 02:00:00 16.8 0 Calma -- -- 0 954.6 -0.6 94
2019-06-24 01:00:00 17 0 Calma 8 Nordeste 0 955 0.3 91
2019-06-24 00:00:00 17.6 2 Norte 8 Norte 0 955.3 0.8 89
2019-06-23 23:00:00 18.6 0 Calma -- -- 0 955.2 1.3 85
2019-06-23 22:00:00 20.1 0 Calma 18 Noroeste 0 954.7 1.3 78
2019-06-23 21:00:00 22.1 5 Noroeste 21 Norte 0 954.5 1.7 70
2019-06-23 20:00:00 23.3 19 Norte 30 Norte 0 953.9 0.7 68
2019-06-23 19:00:00 25.4 20 Norte 39 Norte 0 953.4 -0.3 57
2019-06-23 18:00:00 31.7 9 Sur 22 Sudoeste 0 952.8 -1.2 33
2019-06-23 17:00:00 30.4 13 Sur 22 Sur 0 953.2 -1 34
2019-06-23 16:00:00 29.9 2 Sudeste 18 Sur 0 953.7 -0.8 43
2019-06-23 15:00:00 29.7 9 Sur 22 Sur 0 954 -0.6 43
2019-06-23 14:00:00 28.9 10 Sudeste 22 Sur 0 954.2 -0.7 42
2019-06-23 13:00:00 28 9 Sur 21 Sur 0 954.5 -0.3 48
2019-06-23 12:00:00 26 3 Sur 17 Sudoeste 0 954.6 0.2 55
2019-06-23 11:00:00 23.2 12 Sudoeste 21 Sudoeste 0 954.9 1.1 65
2019-06-23 10:00:00 21.5 14 Sudoeste 21 Sudoeste 0 954.8 1.3 71
2019-06-23 09:00:00 17.5 0 Calma -- -- 0 954.4 1.3 88
2019-06-23 08:00:00 15.6 0 Calma 9 Sudoeste 0 953.8 1.3 90
2019-06-23 07:00:00 15.8 3 Oeste 13 Nordeste 0 953.5 0.9 86
2019-06-23 06:00:00 15.2 7 Nordeste 13 Norte 0 953.1 0.4 88
2019-06-23 05:00:00 15.7 0 Calma 8 Sudeste 0 952.5 -0.7 87
2019-06-23 04:00:00 18.3 3 Este 13 Norte 0 952.6 -0.9 74
2019-06-23 03:00:00 16.7 7 Norte 9 Norte 0 952.7 -1 84
2019-06-23 02:00:00 15.6 0 Calma 8 Noroeste 0 953.2 -0.7 91
2019-06-23 01:00:00 17.3 0 Calma 9 Sur 0 953.5 0.1 88
2019-06-23 00:00:00 18.6 3 Nordeste 9 Sur 0 953.7 0.3 84
2019-06-22 23:00:00 20.6 0 Calma 13 Norte 0 953.9 0.6 74
2019-06-22 22:00:00 22.7 9 Norte 17 Norte 0 953.4 0.2 66
2019-06-22 21:00:00 24.9 14 Norte 18 Norte 0 953.4 -0.2 57
2019-06-22 20:00:00 26.7 10 Sudeste 18 Sur 0 953.3 -0.8 49
2019-06-22 19:00:00 29.5 11 Sudoeste 28 Oeste 0 953.2 -1.5 33
2019-06-22 18:00:00 30.4 15 Sudoeste 26 Sudoeste 0 953.6 -1.9 32
2019-06-22 17:00:00 30 14 Sudoeste 24 Sudoeste 0 954.1 -2.3 34
2019-06-22 16:00:00 28.8 13 Sudoeste 24 Sudoeste 0 954.7 -2.4 38
2019-06-22 15:00:00 27 2 Sur 17 Sur 0 955.5 -2.3 43
2019-06-22 14:00:00 25 3 Sudeste 13 Sur 0 956.4 -2 51
2019-06-22 13:00:00 22 3 Sur 17 Este 0 957.1 -1.9 58
2019-06-22 12:00:00 19 4 Este 11 Nordeste 0 957.8 -1.3 69
2019-06-22 11:00:00 15.4 3 Noroeste 11 Oeste 0 958.4 -1 82
2019-06-22 10:00:00 11.6 0 Calma -- -- 0 959 -0.3 97
2019-06-22 09:00:00 10 0 Calma 9 Sudoeste 0 959.1 -0.2 100
2019-06-22 08:00:00 9.3 0 Calma 11 Oeste 0 959.4 -0.5 100
2019-06-22 07:00:00 9 0 Calma 5 Noroeste 0 959.3 -1.1 100
2019-06-22 06:00:00 8 0 Calma 8 Nordeste 0 959.3 -1.4 100
2019-06-22 05:00:00 6.9 0 Calma 5 Norte 0 959.9 -1.3 100
2019-06-22 04:00:00 6.8 5 Norte 11 Nordeste 0 960.4 -1.1 100
2019-06-22 03:00:00 7.1 8 Este 11 Este 0 960.7 -1.1 100
2019-06-22 02:00:00 8 3 Oeste 9 Noroeste 0 961.2 -0.7 98
2019-06-22 01:00:00 9.4 9 Norte 9 Nordeste 0 961.5 0.2 97
2019-06-22 00:00:00 10.9 5 Norte 18 Norte 0 961.8 0.9 95
2019-06-21 23:00:00 11.4 13 Nordeste 17 Nordeste 0 961.9 1.4 96
2019-06-21 22:00:00 13.4 13 Nordeste 22 Norte 0 961.3 1.2 88
2019-06-21 21:00:00 15.5 17 Norte 28 Norte 0 960.9 0.6 78
2019-06-21 20:00:00 16.7 20 Norte 28 Nordeste 0 960.5 0.1 73
2019-06-21 19:00:00 18.8 18 Norte 33 Norte 0 960.1 -0.5 63
2019-06-21 18:00:00 19.5 18 Norte 33 Norte 0 960.3 -0.5 62
2019-06-21 17:00:00 18.5 22 Norte 30 Norte 0 960.4 -0.7 66
2019-06-21 16:00:00 17.9 14 Nordeste 28 Norte 0 960.6 -0.6 67
2019-06-21 15:00:00 18.5 15 Nordeste 24 Nordeste 0 960.8 -0.3 68
2019-06-21 14:00:00 17.6 14 Nordeste 24 Norte 0 961.1 0.2 69
2019-06-21 13:00:00 17 15 Nordeste 24 Nordeste 0 961.2 0.5 74
2019-06-21 12:00:00 15.2 12 Nordeste 21 Nordeste 0 961.1 0.9 82
2019-06-21 11:00:00 13.7 12 Nordeste 21 Norte 0 960.9 1.2 92
2019-06-21 10:00:00 13.5 13 Norte 18 Norte 0 960.7 2 89
2019-06-21 09:00:00 12.9 13 Norte 22 Norte 0 960.2 1.4 94
2019-06-21 08:00:00 12.6 4 Norte 18 Norte 0 959.7 1 97
2019-06-21 07:00:00 12.1 13 Norte 24 Este 0.9 958.7 0 99
2019-06-21 06:00:00 12.6 10 Nordeste 17 Norte 0 958.8 -0.5 98
2019-06-21 05:00:00 12.9 11 Norte 21 Norte 0 958.7 -0.7 95
2019-06-21 04:00:00 13 9 Norte 21 Norte 0.2 958.7 -0.1 98
2019-06-21 03:00:00 13.5 3 Norte 9 Norte 0.2 959.3 0.3 97
2019-06-21 02:00:00 13.4 2 Noroeste 15 Norte 0 959.4 0.5 98
2019-06-21 01:00:00 13.5 11 Norte 15 Nordeste 1 958.8 0.4 97
2019-06-21 00:00:00 13.9 10 Norte 22 Norte 0 959 1.2 95
2019-06-20 23:00:00 14.3 13 Nordeste 30 Nordeste 0 958.9 1.3 94
2019-06-20 22:00:00 15.2 14 Norte 30 Norte 0 958.4 0.8 85
2019-06-20 21:00:00 16.2 21 Norte 33 Norte 0 957.8 0.5 80
2019-06-20 20:00:00 16.9 17 Nordeste 26 Nordeste 0 957.6 0 79
2019-06-20 19:00:00 16.7 20 Norte 30 Norte 0 957.6 -0.1 79
2019-06-20 18:00:00 17.1 20 Norte 30 Norte 0 957.3 -0.7 79
2019-06-20 17:00:00 17.5 21 Norte 32 Nordeste 0 957.6 -0.6 78
2019-06-20 16:00:00 17.9 21 Norte 30 Norte 0 957.7 -0.6 77
2019-06-20 15:00:00 18.1 22 Norte 32 Norte 0 958 -0.3 77
2019-06-20 14:00:00 18.3 24 Norte 37 Nordeste 0 958.2 0.2 76
2019-06-20 13:00:00 17.6 18 Norte 28 Norte 0 958.3 0.2 80
2019-06-20 12:00:00 16.6 16 Norte 24 Norte 0 958.3 0 84
2019-06-20 11:00:00 16 16 Nordeste 21 Nordeste 0 958 -0.3 88
2019-06-20 10:00:00 16 14 Nordeste 18 Nordeste 0 958.1 -0.1 87
2019-06-20 09:00:00 15.2 7 Norte 15 Norte 0 958.3 0.3 93
2019-06-20 08:00:00 14.5 10 Nordeste 15 Norte 0 958.3 0.4 96
2019-06-20 07:00:00 14 10 Nordeste 15 Nordeste 0 958.2 0.2 99
2019-06-20 06:00:00 14.1 12 Norte 21 Norte 0 958 -0.2 97
2019-06-20 05:00:00 14.4 13 Nordeste 18 Nordeste 0 957.9 -0.6 94
2019-06-20 04:00:00 14.8 6 Norte 11 Norte 0 958 -0.4 90
2019-06-20 03:00:00 14.7 8 Nordeste 13 Nordeste 0 958.2 -0.2 91
2019-06-20 02:00:00 15.2 9 Norte 13 Norte 0 958.5 0.5 87
2019-06-20 01:00:00 15.5 9 Norte 17 Norte 0 958.4 1.2 88
2019-06-20 00:00:00 15.5 14 Norte 28 Nordeste 0 958.4 2.1 90
2019-06-19 23:00:00 16 15 Norte 28 Norte 0 958 2.3 89
2019-06-19 22:00:00 16.4 16 Norte 30 Norte 0 957.2 2.1 89
2019-06-19 21:00:00 17.5 23 Norte 33 Norte 0 956.3 1.4 86
2019-06-19 20:00:00 19.8 19 Norte 30 Noroeste 0 955.7 0.8 78
2019-06-19 19:00:00 22 16 Norte 33 Norte 0 955.1 0.2 70
2019-06-19 18:00:00 22.5 21 Nordeste 33 Norte 0 954.9 -0.1 68
2019-06-19 17:00:00 25.6 13 Sudoeste 30 Sudoeste 0 954.9 -0.3 47
2019-06-19 16:00:00 25.2 15 Sudoeste 41 Sudoeste 0 954.9 -0.4 48
2019-06-19 15:00:00 25.7 23 Sudoeste 37 Sudoeste 0 955 -0.1 46
2019-06-19 14:00:00 24.3 24 Sudoeste 41 Sudoeste 0 955.2 0.2 51
2019-06-19 13:00:00 24.3 27 Sudoeste 41 Oeste 0 955.3 0 51
2019-06-19 12:00:00 23.4 30 Sudoeste 45 Oeste 0 955.1 -0.1 54
2019-06-19 11:00:00 22.5 23 Sudoeste 42 Sudoeste 0 955 -0.1 60
2019-06-19 10:00:00 20.6 25 Sudoeste 42 Sudoeste 0 955.3 0.3 63
2019-06-19 09:00:00 19.3 7 Sur 15 Sudoeste 0 955.2 0.4 73
2019-06-19 08:00:00 14.9 5 Sur 8 Sur 0 955.1 0.6 89
2019-06-19 07:00:00 12.5 0 Calma -- -- 0 955 0.9 98
2019-06-19 06:00:00 11 0 Calma 9 Norte 0 954.8 0.8 95
2019-06-19 05:00:00 12.3 3 Norte 13 Este 0 954.5 0.8 92
2019-06-19 04:00:00 12.1 4 Norte 9 Este 0 954.1 0.3 94
2019-06-19 03:00:00 13.1 2 Norte 11 Noroeste 0 954 -- 92
2019-06-19 02:00:00 13.4 8 Norte 13 Este 0 953.7 -- 91
2019-06-19 01:00:00 14.4 9 Nordeste 18 Nordeste 0 953.8 1.5 91
2019-06-19 00:00:00 -- -- -- -- -- -- -- -- --
2019-06-18 23:00:00 -- -- -- -- -- -- -- -- --
2019-06-18 22:00:00 21.6 6 Noroeste 24 Nordeste 0 952.3 2.3 60
2019-06-18 21:00:00 27.8 11 Sudoeste -- -- -- 951.4 1.4 30
2019-06-18 20:00:00 -- -- -- -- -- -- -- -- --
2019-06-18 19:00:00 32 27 Sudoeste 50 Oeste 0 950 -0.5 16
2019-06-18 18:00:00 32.8 28 Sudoeste 48 Sudoeste 0 950 -1.2 16
2019-06-18 17:00:00 32.3 19 Sudoeste 37 Sur 0 950 -1.8 19
2019-06-18 16:00:00 32.4 23 Sur 35 Sudoeste 0 950.5 -1.9 22
2019-06-18 15:00:00 31.3 19 Sur 37 Sur 0 951.2 -1.8 24
2019-06-18 14:00:00 30.4 23 Sur 39 Sudoeste 0 951.8 -1.3 25
2019-06-18 13:00:00 29.1 19 Sudoeste 30 Sudoeste 0 952.4 -1.3 30
2019-06-18 12:00:00 27.3 6 Sur 21 Sur 0 953 -1 41
2019-06-18 11:00:00 25.2 4 Este 13 Noroeste 0 953.1 -0.9 49
2019-06-18 10:00:00 22 3 Nordeste 9 Nordeste 0 953.7 0.1 59
2019-06-18 09:00:00 18.4 0 Calma 5 Oeste 0 954 0.4 87
2019-06-18 08:00:00 14.6 0 Calma 5 Este 0 954 0.4 96
2019-06-18 07:00:00 12.2 0 Calma 9 Noroeste 0 953.6 -1.1 100
2019-06-18 06:00:00 13 5 Sudoeste 13 Noroeste 0 953.6 -1 97
2019-06-18 05:00:00 14.5 11 Norte 15 Nordeste 0 953.6 -1.1 98
2019-06-18 04:00:00 15.6 6 Este 18 Norte 0 954.7 -0.3 94
2019-06-18 03:00:00 16.3 9 Nordeste 13 Nordeste 0 954.6 -0.4 94
2019-06-18 02:00:00 16.5 4 Nordeste 11 Este 0 954.7 -0.1 94
2019-06-18 01:00:00 17.2 5 Nordeste 15 Norte 0 955 0.6 92
2019-06-18 00:00:00 18 10 Norte 15 Nordeste 0 955 1.1 89
2019-06-17 23:00:00 18.7 6 Este 15 Este 0 954.8 1.4 85
2019-06-17 22:00:00 21.4 0 Calma 17 Noroeste 0 954.4 1 76
2019-06-17 21:00:00 23.9 8 Noroeste 26 Norte 0 953.9 0.1 65
2019-06-17 20:00:00 27.5 15 Nordeste 28 Nordeste 0 953.4 -0.8 45
2019-06-17 19:00:00 29.4 9 Sudeste 22 Sur 0 953.4 -1.4 34
2019-06-17 18:00:00 30.8 15 Sur 33 Sudoeste 0 953.8 -1.6 26
2019-06-17 17:00:00 32.1 22 Sudoeste 33 Sudoeste 0 954.2 -2.1 25
2019-06-17 16:00:00 31.1 14 Sudoeste 32 Sudoeste 0 954.8 -2.3 29
2019-06-17 15:00:00 29.9 9 Sudoeste 22 Sudoeste 0 955.4 -2.3 32
2019-06-17 14:00:00 28.5 5 Sur 18 Sudoeste 0 956.3 -1.9 33
2019-06-17 13:00:00 25.6 5 Sur 13 Sudeste 0 957.1 -1.4 56
2019-06-17 12:00:00 22.2 4 Norte 9 Nordeste 0 957.7 -1.1 67
2019-06-17 11:00:00 17.4 0 Calma 8 Sudoeste 0 958.2 -0.5 84
2019-06-17 10:00:00 13.5 2 Sudoeste 8 Nordeste 0 958.5 0.1 99
2019-06-17 09:00:00 12.3 0 Calma 8 Este 0 958.8 0.4 100
2019-06-17 08:00:00 11.9 0 Calma 5 Sur 0 958.7 0.4 100
2019-06-17 07:00:00 11.5 0 Calma 13 Norte 0 958.4 -0.2 100
2019-06-17 06:00:00 11.4 2 Noroeste 9 Nordeste 0 958.4 -0.7 100
2019-06-17 05:00:00 11.5 3 Este 9 Este 0 958.3 -1 100
2019-06-17 04:00:00 10.4 5 Este 9 Nordeste 0 958.6 -0.7 98
2019-06-17 03:00:00 10.9 0 Calma 8 Este 0 959.1 -0.3 96
2019-06-17 02:00:00 12.1 5 Este 9 Sudeste 0 959.3 0.1 96
2019-06-17 01:00:00 12.8 4 Sudeste 9 Noroeste 0 959.3 0.7 91
2019-06-17 00:00:00 15 0 Calma 8 Oeste 0 959.4 1.2 88
2019-06-16 23:00:00 16.8 3 Oeste 13 Noroeste 0 959.2 1.4 85
2019-06-16 22:00:00 19.1 8 Noroeste 18 Norte 0 958.6 1.3 78
2019-06-16 21:00:00 21.2 12 Norte 35 Norte 0 958.2 0.8 69
2019-06-16 20:00:00 22.9 25 Norte 35 Norte 0 957.8 0 64
2019-06-16 19:00:00 25.2 26 Norte 35 Norte 0 957.3 -1 56
2019-06-16 18:00:00 28 5 Sudeste 24 Sudeste 0 957.4 -1.5 34
2019-06-16 17:00:00 28 10 Este 21 Sudeste 0 957.8 -1.9 34
2019-06-16 16:00:00 27.5 10 Nordeste 26 Norte 0 958.3 -2 35
2019-06-16 15:00:00 26.4 8 Sudeste 22 Sudeste 0 958.9 -2.1 37
2019-06-16 14:00:00 24.8 8 Sudeste 18 Este 0 959.7 -1.9 42
2019-06-16 13:00:00 22.4 7 Este 15 Este 0 960.3 -1.6 50
2019-06-16 12:00:00 19.6 5 Nordeste 13 Norte 0 961 -1.1 58
2019-06-16 11:00:00 16.8 8 Este 13 Sudeste 0 961.6 -0.5 67
2019-06-16 10:00:00 14.3 3 Este 8 Sudeste 0 961.9 -0.1 75
2019-06-16 09:00:00 10.6 0 Calma 4 Este 0 962.1 0 86
2019-06-16 08:00:00 7.1 0 Calma 2 Noroeste 0 962.1 -0.2 95
2019-06-16 07:00:00 4.1 0 Calma 2 Este 0 962 -0.7 98
2019-06-16 06:00:00 4.6 4 Norte 11 Norte 0 962.1 -0.8 99
2019-06-16 05:00:00 5 5 Norte 8 Nordeste 0 962.3 -1.2 97
2019-06-16 04:00:00 5.4 -- -- 5 Nordeste 0 962.7 -0.8 97
2019-06-16 03:00:00 6.3 0 Calma 5 Nordeste 0 962.9 -0.8 94
2019-06-16 02:00:00 7.7 4 Nordeste 8 Sudeste 0 963.5 0 97
2019-06-16 01:00:00 8.2 3 Este 8 Este 0 963.5 0.7 93
2019-06-16 00:00:00 9.6 5 Sudoeste 13 Noroeste 0 963.7 1.3 93
2019-06-15 23:00:00 11.7 6 Noroeste 18 Norte 0 963.5 1.7 81
2019-06-15 22:00:00 13.3 14 Norte 37 Norte 0 962.8 1.6 74
2019-06-15 21:00:00 15.6 25 Norte 37 Norte 0 962.4 1.5 65
2019-06-15 20:00:00 17.5 25 Norte 39 Norte 0 961.8 0.9 62
2019-06-15 19:00:00 19.2 25 Nordeste 35 Norte 0 961.2 0.2 59
2019-06-15 18:00:00 20.6 22 Nordeste 32 Nordeste 0 960.9 -0.1 54
2019-06-15 17:00:00 20 18 Norte 32 Nordeste 0 960.9 -0.4 54
2019-06-15 16:00:00 20.5 18 Norte 32 Norte 0 961 -0.2 52
2019-06-15 15:00:00 20.4 10 Nordeste 28 Norte 0 961 -0.2 52
2019-06-15 14:00:00 19.7 15 Norte 26 Norte 0 961.3 0.4 53
2019-06-15 13:00:00 18.5 3 Sudeste 18 Nordeste 0 961.2 0.3 59
2019-06-15 12:00:00 18 6 Este 15 Nordeste 0 961.2 0.6 59
2019-06-15 11:00:00 16.6 8 Este 18 Nordeste 0 960.9 1 65
2019-06-15 10:00:00 15.2 3 Este 11 Este 0 960.9 1.1 71
2019-06-15 09:00:00 13.2 0 Calma 5 Sudeste 0 960.6 1.2 81
2019-06-15 08:00:00 9.8 2 Noroeste 8 Noroeste 0 959.9 0.6 95
2019-06-15 07:00:00 8.7 5 Nordeste 8 Nordeste 0 959.8 0.8 99
2019-06-15 06:00:00 8 5 Norte 9 Norte 0 959.4 0.7 98
2019-06-15 05:00:00 9.1 5 Sudoeste 13 Oeste 0 959.3 0.6 96
2019-06-15 04:00:00 10 0 Calma 5 Este 0 959 0.4 92
2019-06-15 03:00:00 10.8 0 Calma 8 Este 0 958.7 0.8 94
2019-06-15 02:00:00 11.6 4 Nordeste 15 Nordeste 0 958.7 1.4 93
2019-06-15 01:00:00 12 11 Norte 18 Oeste 0 958.6 2.4 92
2019-06-15 00:00:00 12 4 Noroeste 24 Norte 0 957.9 2.3 92
2019-06-14 23:00:00 12.5 16 Norte 28 Norte 0 957.3 2.3 89
2019-06-14 22:00:00 13 19 Norte 28 Norte 0 956.2 1.7 87
2019-06-14 21:00:00 13.4 18 Norte 30 Norte 0 955.6 1.7 88
2019-06-14 20:00:00 13.8 18 Norte 30 Norte 0 955 1.5 85
2019-06-14 19:00:00 13.9 15 Norte 24 Norte 0 954.5 1.3 86
2019-06-14 18:00:00 15.4 15 Norte 32 Norte 0 953.9 0.8 80
2019-06-14 17:00:00 17.8 19 Norte 35 Norte 0 953.5 0.6 71
2019-06-14 16:00:00 19.1 22 Norte 37 Nordeste 0 953.2 -0.2 67
2019-06-14 15:00:00 19.2 16 Norte 30 Norte 0 953.1 -0.6 67
2019-06-14 14:00:00 19 16 Nordeste 28 Nordeste 0 952.9 -1 66
2019-06-14 13:00:00 17.6 12 Nordeste 30 Norte 0 953.4 -0.5 70
2019-06-14 12:00:00 16.1 10 Nordeste 22 Nordeste 0 953.7 -0.1 74
2019-06-14 11:00:00 14.4 9 Nordeste 17 Nordeste 0 953.9 0.3 78
2019-06-14 10:00:00 12.9 10 Nordeste 18 Nordeste 0 953.9 0.1 84
2019-06-14 09:00:00 12.3 10 Norte 15 Nordeste 0 953.8 0.2 86
2019-06-14 08:00:00 11.4 10 Norte 21 Norte 0 953.6 -0.1 89
2019-06-14 07:00:00 11.1 12 Norte 21 Norte 0 953.8 -0.8 92
2019-06-14 06:00:00 10.9 11 Norte 17 Norte 0 953.6 -1.1 93
2019-06-14 05:00:00 10.8 12 Norte 17 Norte 0 953.7 -1.5 90
2019-06-14 04:00:00 11.1 9 Norte 17 Norte 0 954.6 -0.9 90
2019-06-14 03:00:00 11.2 11 Norte 22 Norte 0 954.7 -0.7 89
2019-06-14 02:00:00 11.4 13 Norte 22 Norte 0 955.2 -0.1 90
2019-06-14 01:00:00 11.6 11 Norte 18 Norte 0 955.5 1.1 88
2019-06-14 00:00:00 11.5 12 Nordeste 24 Nordeste 0 955.4 2.1 91
2019-06-13 23:00:00 11.9 14 Norte 22 Norte 0 955.3 2.8 87
2019-06-13 22:00:00 12.1 15 Norte 24 Norte 0 954.4 2.8 89
2019-06-13 21:00:00 12.6 19 Norte 32 Nordeste 0 953.3 2.7 84
2019-06-13 20:00:00 13 19 Norte 32 Norte 0 952.5 2.3 86
2019-06-13 19:00:00 15 22 Norte 37 Nordeste 0 951.6 1.6 82
2019-06-13 18:00:00 19.1 27 Nordeste 35 Nordeste 0 950.6 0.5 70
2019-06-13 17:00:00 19.5 21 Norte 37 Norte 0 950.2 -0.6 68
2019-06-13 16:00:00 21.7 30 Norte 42 Norte 0 950 -1.5 59
2019-06-13 15:00:00 25.4 15 Sudeste 37 Sur 0 950.1 -2 44
2019-06-13 14:00:00 23.1 12 Este 28 Este 0 950.8 -1.7 49
2019-06-13 13:00:00 21.2 6 Sudeste 18 Sudeste 0 951.5 -1.2 52
2019-06-13 12:00:00 19 8 Este 17 Nordeste 0 952.1 -0.9 56
2019-06-13 11:00:00 16.2 6 Norte 13 Nordeste 0 952.5 -0.6 63
2019-06-13 10:00:00 13.4 3 Norte 11 Norte 0 952.7 -0.4 73
2019-06-13 09:00:00 10.6 0 Calma -- -- 0 953 0 86
2019-06-13 08:00:00 7 0 Calma -- -- 0 953.1 0.1 96
2019-06-13 07:00:00 3 0 Calma -- -- 0 953.1 -0.2 98
2019-06-13 06:00:00 3.6 0 Calma 5 Oeste 0 953 -0.7 100
2019-06-13 05:00:00 4 0 Calma 4 Noroeste 0 953 -1.4 97
2019-06-13 04:00:00 5.5 0 Calma 5 Nordeste 0 953.3 -1.6 98
2019-06-13 03:00:00 7.6 3 Norte -- -- -- 953.7 -1.8 94
2019-06-13 02:00:00 8.1 7 Norte 9 Norte 0 954.4 -1.1 93
2019-06-13 01:00:00 8.8 0 Calma 8 Norte 0 954.9 -0.1 90
2019-06-13 00:00:00 9.5 0 Calma 15 Norte 0 955.5 0.8 90
2019-06-12 23:00:00 9.9 11 Norte 26 Norte 0 955.5 1.2 87
2019-06-12 22:00:00 11.3 18 Norte 37 Nordeste 0 955 1.1 78
2019-06-12 21:00:00 13.2 27 Norte 41 Norte 0 954.7 0.8 70
2019-06-12 20:00:00 14.4 27 Norte 41 Norte 0 954.3 0.5 68
2019-06-12 19:00:00 16.2 29 Norte 42 Norte 0 953.9 -0.2 63
2019-06-12 18:00:00 17.5 29 Norte 42 Norte 0 953.9 -0.6 59
2019-06-12 17:00:00 18.1 29 Norte 37 Norte 0 953.8 -1.3 53
2019-06-12 16:00:00 19.2 0 Calma 22 Sur 0 954.1 -1.4 39
2019-06-12 15:00:00 19.2 9 Sur 28 Sudeste 0 954.5 -1.2 37
2019-06-12 14:00:00 18.4 10 Sudoeste 24 Sur 0 955.1 -0.6 37
2019-06-12 13:00:00 17.3 12 Sudoeste 28 Sudoeste 0 955.5 -0.4 48
2019-06-12 12:00:00 16.4 15 Sur 30 Sur 0 955.7 -0.3 49
2019-06-12 11:00:00 14.4 14 Sudoeste 26 Sudoeste 0 955.7 -0.2 56
2019-06-12 10:00:00 12.4 5 Sur 13 Sudeste 0 955.9 0.2 70
2019-06-12 09:00:00 8.7 3 Nordeste 13 Nordeste 0 956 0.5 90
2019-06-12 08:00:00 4.3 5 Nordeste 8 Nordeste 0 955.9 0.5 100
2019-06-12 07:00:00 2 5 Este 11 Nordeste 0 955.7 0 100
2019-06-12 06:00:00 2.2 6 Nordeste 11 Norte 0 955.5 -0.6 100
2019-06-12 05:00:00 2.1 3 Norte 9 Nordeste 0 955.4 -0.8 100
2019-06-12 04:00:00 3.4 0 Calma 8 Noroeste 0 955.7 -1.1 100
2019-06-12 03:00:00 3.5 5 Sudoeste 9 Sudoeste 0 956.1 -1 99
2019-06-12 02:00:00 4.9 0 Calma 9 Noroeste 0 956.2 -1.4 98
2019-06-12 01:00:00 5.9 8 Oeste 11 Noroeste 0 956.8 -0.4 97
2019-06-12 00:00:00 7.1 4 Noroeste 9 Noroeste 0 957.1 -0.3 95
2019-06-11 23:00:00 7.7 5 Noroeste 13 Sudoeste 0 957.6 0.2 92
2019-06-11 22:00:00 10 9 Noroeste 17 Noroeste 0 957.2 0.1 80
2019-06-11 21:00:00 11.6 9 Oeste 30 Norte 0 957.4 0.1 76
2019-06-11 20:00:00 12.6 20 Noroeste 41 Norte 0 957.4 0.1 70
2019-06-11 19:00:00 13.8 25 Noroeste 45 Noroeste 0 957.1 -0.1 65
2019-06-11 18:00:00 13.5 17 Noroeste 45 Noroeste 0 957.3 0.2 69
2019-06-11 17:00:00 13.8 23 Noroeste 39 Noroeste 0 957.3 0.2 68
2019-06-11 16:00:00 13.7 24 Noroeste 45 Noroeste 0 957.2 0.1 64
2019-06-11 15:00:00 13.3 19 Noroeste 52 Noroeste 0 957.1 0.1 66
2019-06-11 14:00:00 13.3 26 Oeste 35 Oeste 0 957.1 0.4 69
2019-06-11 13:00:00 13.4 23 Noroeste 42 Norte 0 957.1 0.3 68
2019-06-11 12:00:00 12.1 18 Noroeste 33 Noroeste 0 957 0.7 73
2019-06-11 11:00:00 12.3 21 Noroeste 30 Noroeste 0 956.7 0.7 73
2019-06-11 10:00:00 9.3 13 Noroeste 35 Noroeste 0 956.8 0.9 86
2019-06-11 09:00:00 9.2 7 Oeste 35 Oeste 0 956.3 0.4 85
2019-06-11 08:00:00 8.7 6 Oeste 13 Noroeste 0 956 -0.1 95
2019-06-11 07:00:00 8.4 9 Oeste 15 Noroeste 0 955.9 -0.8 96
2019-06-11 06:00:00 8.5 4 Oeste 9 Oeste 0 955.9 -0.9 94
2019-06-11 05:00:00 8.6 8 Oeste 15 Oeste 0 956.1 -1 97
2019-06-11 04:00:00 8.9 8 Noroeste 13 Noroeste 0 956.7 -1 95
2019-06-11 03:00:00 9 9 Sudoeste 13 Sudoeste 0.1 956.8 -1.4 99
2019-06-11 02:00:00 9 6 Sudoeste 9 Sudoeste 0.3 957.1 -1.3 99
2019-06-11 01:00:00 9.4 4 Sur 8 Sur 0.1 957.7 -0.8 98
2019-06-11 00:00:00 9.8 5 Oeste 8 Oeste 0.1 958.2 -0.3 96
2019-06-10 23:00:00 9.8 0 Calma 9 Nordeste 0 958.4 -0.1 96
2019-06-10 22:00:00 9.9 7 Nordeste 21 Nordeste 0 958.5 0.3 93
2019-06-10 21:00:00 10.8 15 Nordeste 22 Nordeste 0 958.5 0.1 83
2019-06-10 20:00:00 12 17 Norte 28 Norte 0 958.5 0 78
2019-06-10 19:00:00 13.2 21 Norte 32 Norte 0 958.2 -0.8 65
2019-06-10 18:00:00 14.8 21 Norte 33 Norte 0 958.4 -1.1 64
2019-06-10 17:00:00 15.6 22 Nordeste 32 Nordeste 0 958.5 -1.6 60
2019-06-10 16:00:00 16.6 14 Norte 24 Norte 0 959 -1.4 58
2019-06-10 15:00:00 15.8 12 Norte 26 Norte 0 959.5 -1 64
2019-06-10 14:00:00 14 9 Este 18 Norte 0 960.1 -0.6 69
2019-06-10 13:00:00 13.6 5 Oeste 18 Noroeste 0 960.4 -0.4 71
2019-06-10 12:00:00 13 9 Oeste 22 Oeste 0 960.5 -0.4 70
2019-06-10 11:00:00 12.6 15 Noroeste 24 Oeste 0 960.7 0 74
2019-06-10 10:00:00 11.7 13 Norte 22 Norte 0 960.8 0.3 75
2019-06-10 09:00:00 10.3 14 Norte 22 Norte 0 960.9 0.6 87
2019-06-10 08:00:00 9.2 7 Norte 17 Norte 0 960.7 0 96
2019-06-10 07:00:00 9.2 11 Norte 18 Norte 0 960.5 -0.4 95
2019-06-10 06:00:00 9.7 10 Nordeste 15 Nordeste 0 960.3 -1.3 91
2019-06-10 05:00:00 10.2 10 Norte 15 Norte 0 960.7 -1.2 87
2019-06-10 04:00:00 10.5 7 Norte 17 Noroeste 0 960.9 -1.1 88
2019-06-10 03:00:00 10.4 9 Norte -- -- -- 961.6 -0.5 90
2019-06-10 02:00:00 10.8 13 Nordeste 21 Norte 0 961.9 0 94
2019-06-10 01:00:00 11.2 8 Norte 15 Norte 0 962 0.8 94
2019-06-10 00:00:00 11.3 10 Nordeste 18 Nordeste 0 962.1 1.3 92
2019-06-09 23:00:00 11.7 15 Norte 22 Norte 0 961.9 1.9 88
2019-06-09 22:00:00 12.2 10 Norte 26 Norte 0 961.2 1.8 86
2019-06-09 21:00:00 12.6 13 Noroeste 33 Noroeste 0 960.8 1.6 86
2019-06-09 20:00:00 13.4 12 Noroeste 33 Norte 0 960 1.4 88
2019-06-09 19:00:00 14.1 21 Norte 37 Norte 0 959.4 1.1 86
2019-06-09 18:00:00 14.5 23 Norte 39 Nordeste 0 959.2 1.2 85
2019-06-09 17:00:00 16.2 31 Norte 42 Nordeste 0 958.6 0.7 77
2019-06-09 16:00:00 17.6 25 Norte 41 Norte 0 958.3 0.1 69
2019-06-09 15:00:00 20.8 18 Noroeste 33 Noroeste 0 958 -0.5 58
2019-06-09 14:00:00 19.8 9 Noroeste 26 Noroeste 0 957.9 -1 61
2019-06-09 13:00:00 18.3 6 Norte 21 Noroeste 0 958.2 -0.8 66
2019-06-09 12:00:00 16.9 6 Norte 18 Norte 0 958.5 -0.6 68
2019-06-09 11:00:00 15.6 9 Norte 15 Norte 0 958.9 0 73
2019-06-09 10:00:00 14.1 8 Norte 17 Norte 0 959 0.3 78
2019-06-09 09:00:00 12.8 9 Norte 15 Norte 0 959.1 0.4 84
2019-06-09 08:00:00 11 6 Norte 13 Noroeste 0 958.9 -0.4 94
2019-06-09 07:00:00 10 0 Calma 4 Nordeste 0 958.7 -0.9 98
2019-06-09 06:00:00 9.8 3 Nordeste 9 Norte 0 958.7 -1.5 95
2019-06-09 05:00:00 11.3 7 Norte 11 Noroeste 0 959.3 -1.3 92
2019-06-09 04:00:00 11.6 3 Noroeste 18 Norte 0 959.6 -1.6 90
2019-06-09 03:00:00 11.9 13 Norte -- -- -- 960.2 -1.2 88
2019-06-09 02:00:00 12.1 15 Norte 30 Norte 0 960.6 -0.9 89
2019-06-09 01:00:00 12.4 17 Norte 24 Norte 0 961.2 0.4 88
2019-06-09 00:00:00 12.4 16 Norte 28 Norte 0 961.4 1 87
2019-06-08 23:00:00 12.4 14 Norte 22 Norte 0 961.5 1.1 86
2019-06-08 22:00:00 13.2 17 Norte 30 Norte 0 960.8 1 83
2019-06-08 21:00:00 14.8 21 Norte 33 Norte 0 960.4 0.6 76
2019-06-08 20:00:00 16.3 24 Norte 35 Norte 0 960.4 0.3 72
2019-06-08 19:00:00 18.8 25 Norte 39 Norte 0 959.8 -1 65
2019-06-08 18:00:00 20.2 26 Norte 42 Nordeste 0 959.8 -1.6 60
2019-06-08 17:00:00 20.6 27 Nordeste 35 Nordeste 0 960.1 -2.2 58
2019-06-08 16:00:00 20.9 21 Nordeste 33 Norte 0 960.8 -2.3 55
2019-06-08 15:00:00 20.7 14 Norte 26 Nordeste 0 961.4 -2.5 54
2019-06-08 14:00:00 19.5 15 Norte 26 Norte 0 962.3 -2.1 56
2019-06-08 13:00:00 18.4 12 Nordeste 21 Nordeste 0 963.1 -1.8 58
2019-06-08 12:00:00 16.6 10 Nordeste 22 Nordeste 0 963.9 -1.2 61
2019-06-08 11:00:00 15 8 Nordeste 22 Norte 0 964.4 -0.8 64
2019-06-08 10:00:00 12.5 6 Este 15 Sudeste 0 964.9 -0.1 77
2019-06-08 09:00:00 8.6 0 Calma 4 Nordeste 0 965.1 0.3 91
2019-06-08 08:00:00 5.7 0 Calma 5 Norte 0 965.2 0.6 96
2019-06-08 07:00:00 3.3 0 Calma 5 Norte 0 965 0.4 100
2019-06-08 06:00:00 3.1 6 Nordeste 8 Este 0 964.8 0.2 99
2019-06-08 05:00:00 4 2 Noroeste 5 Noroeste 0 964.6 0.1 99
2019-06-08 04:00:00 3.6 4 Este 5 Sudeste 0 964.6 0.1 99
2019-06-08 03:00:00 4.2 2 Nordeste -- -- -- 964.6 0.6 97
2019-06-08 02:00:00 5.8 0 Calma 8 Oeste 0 964.5 1 93
2019-06-08 01:00:00 7.4 7 Norte 11 Este 0 964.5 1.9 91
2019-06-08 00:00:00 7.7 6 Este 13 Este 0 964 2 89
2019-06-07 23:00:00 9 5 Nordeste 24 Nordeste 0 963.5 2.2 85
2019-06-07 22:00:00 10.3 16 Norte 32 Nordeste 0 962.6 2.3 78
2019-06-07 21:00:00 11.6 21 Norte 39 Nordeste 0 962 2.5 72
2019-06-07 20:00:00 14 27 Norte 37 Norte 0 961.3 2.8 67
2019-06-07 19:00:00 14.5 26 Norte 39 Nordeste 0 960.3 2.6 64
2019-06-07 18:00:00 16.4 23 Norte 41 Norte 0 959.5 2.4 59
2019-06-07 17:00:00 15.3 30 Norte 42 Norte 0 958.5 1.7 61
2019-06-07 16:00:00 19.5 17 Sudoeste 37 Sudoeste 0 957.7 1.6 40
2019-06-07 15:00:00 18.8 20 Sudoeste 33 Sudoeste 0 957.1 2 42
2019-06-07 14:00:00 16.9 17 Oeste 37 Sudoeste 0 956.8 2.5 45
2019-06-07 13:00:00 17 27 Sudoeste 45 Sudoeste 0 956.1 3.3 46
2019-06-07 12:00:00 16.1 29 Sudoeste 46 Sudoeste 0 955.1 2.5 51
2019-06-07 11:00:00 14.4 23 Sudoeste 58 Sudoeste 0 954.3 3.1 56
2019-06-07 10:00:00 13 44 Sudoeste 67 Sudoeste 0 952.8 3 63
2019-06-07 09:00:00 11.3 24 Sudoeste 37 Oeste 0 952.6 3.8 69
2019-06-07 08:00:00 10.5 27 Sudoeste 55 Sudoeste 0 951.2 2.9 72
2019-06-07 07:00:00 10 39 Sudoeste 59 Sudoeste 0 949.8 1.8 74
2019-06-07 06:00:00 9.7 37 Sudoeste 59 Sudoeste 0 948.8 0.4 78
2019-06-07 05:00:00 9.5 39 Sudoeste 55 Sudoeste 0 948.3 0.2 80
2019-06-07 04:00:00 9.1 37 Sur 61 Sudoeste 0.2 948 1.7 83
2019-06-07 03:00:00 10 37 Sudoeste -- -- -- 948.4 3.1 82
2019-06-07 02:00:00 12.3 30 Sudoeste 55 Sudoeste 0.3 948.1 2.3 78
2019-06-07 01:00:00 16.2 36 Sudoeste 59 Sudoeste 0 946.3 2.3 66
2019-06-07 00:00:00 16.1 18 Sudoeste 50 Sudoeste 0 945.3 1.5 68
2019-06-06 23:00:00 19.5 30 Sudoeste 59 Sudoeste 0 945.8 1.9 48
2019-06-06 22:00:00 21.5 18 Sur 39 Sur 0 944 -0.2 31
2019-06-06 21:00:00 21.3 15 Sur 33 Sur 0 943.8 -1.3 33
2019-06-06 20:00:00 22.5 23 Sur 42 Sur 0 943.9 -2.7 30
2019-06-06 19:00:00 23.2 29 Sur 45 Sur 0 944.2 -3.8 30
2019-06-06 18:00:00 24 20 Sur 37 Sur 0 945.1 -4.2 34
2019-06-06 17:00:00 23.3 18 Sur 37 Este 0 946.6 -3.7 41
2019-06-06 16:00:00 21 20 Sur 41 Sur 0 948 -3.4 48
2019-06-06 15:00:00 20.7 14 Sur 37 Sudeste 0 949.3 -3.2 51
2019-06-06 14:00:00 19.2 22 Sudeste 33 Sudeste 0 950.3 -2.8 54
2019-06-06 13:00:00 19.2 9 Sur 24 Sur 0 951.4 -2.5 52
2019-06-06 12:00:00 16.7 4 Noroeste 15 Este 0 952.5 -2.2 63
2019-06-06 11:00:00 14.8 0 Calma 9 Oeste 0 953.1 -2 71
2019-06-06 10:00:00 12.6 0 Calma -- -- 0 953.9 -1.3 78
2019-06-06 09:00:00 9.8 0 Calma -- -- 0 954.7 -0.6 86
2019-06-06 08:00:00 7 0 Calma 8 Noroeste 0 955.1 -0.4 98
2019-06-06 07:00:00 6.7 5 Nordeste 9 Nordeste 0 955.2 -0.5 100
2019-06-06 06:00:00 6.7 2 Nordeste 8 Nordeste 0 955.3 -0.7 99
2019-06-06 05:00:00 7.6 2 Norte 8 Noroeste 0 955.5 -0.6 96
2019-06-06 04:00:00 7.9 0 Calma -- -- 0 955.7 -1.1 99
2019-06-06 03:00:00 8.3 0 Calma -- -- -- 956 -0.8 96
2019-06-06 02:00:00 8.7 5 Este 13 Oeste 0 956.1 -0.6 95
2019-06-06 01:00:00 9.2 8 Noroeste 13 Oeste 0 956.8 0.8 92
2019-06-06 00:00:00 8.4 2 Este 9 Nordeste 0 956.8 1.1 95
2019-06-05 23:00:00 9.2 6 Noroeste 15 Nordeste 0 956.7 1.4 86
2019-06-05 22:00:00 9.9 8 Nordeste 15 Norte 0 956 1 88
2019-06-05 21:00:00 11.7 6 Nordeste 22 Norte 0 955.7 1.1 83
2019-06-05 20:00:00 12.3 15 Noroeste 28 Nordeste 0 955.3 0.8 70
2019-06-05 19:00:00 12.9 21 Nordeste 30 Norte 0 955 0.7 73
2019-06-05 18:00:00 14.5 17 Noroeste 39 Norte 0 954.6 0.5 63
2019-06-05 17:00:00 14.7 22 Noroeste 46 Norte 0 954.5 0.5 64
2019-06-05 16:00:00 15.4 27 Noroeste 46 Noroeste 0 954.3 0.6 64
2019-06-05 15:00:00 15.6 27 Noroeste 45 Noroeste 0 954.1 1 65
2019-06-05 14:00:00 14.5 17 Noroeste 33 Noroeste 0 954 1.6 72
2019-06-05 13:00:00 12.4 16 Noroeste 32 Noroeste 0 953.7 1.4 81
2019-06-05 12:00:00 11.7 14 Noroeste 24 Noroeste 0 953.1 1.2 89
2019-06-05 11:00:00 10.5 7 Noroeste 13 Noroeste 0 952.4 0.5 93
2019-06-05 10:00:00 10.2 5 Oeste 13 Noroeste 0 952.3 1.3 92
2019-06-05 09:00:00 9.3 0 Calma 15 Noroeste 1.2 951.9 0.8 94
2019-06-05 08:00:00 9.6 10 Noroeste 26 Norte 0.9 951.9 0.7 93
2019-06-05 07:00:00 9.8 12 Norte 24 Norte 0.8 951 -0.5 94
2019-06-05 06:00:00 9.9 10 Norte 15 Norte 1.8 951.1 -0.7 99
2019-06-05 05:00:00 10.8 10 Noroeste 17 Noroeste 0 951.2 -1.3 95
2019-06-05 04:00:00 10.5 9 Noroeste 13 Noroeste 0 951.5 -1.6 97
2019-06-05 03:00:00 10.9 11 Noroeste -- -- -- 951.8 -1.7 93
2019-06-05 02:00:00 11.2 7 Nordeste 13 Norte 0 952.5 -0.9 95
2019-06-05 01:00:00 11.2 9 Norte 26 Nordeste 0 953.1 0.3 91
2019-06-05 00:00:00 11.3 14 Norte 24 Norte 0 953.5 0.5 95
2019-06-04 23:00:00 11.5 17 Norte 30 Nordeste 0.9 953.4 0.8 94
2019-06-04 22:00:00 12.6 14 Nordeste 30 Norte 0 952.8 0.9 79
2019-06-04 21:00:00 12.7 18 Norte 37 Norte 0 953 2.1 79
2019-06-04 20:00:00 13.1 28 Norte 42 Norte 0 952.6 2.1 82
2019-06-04 19:00:00 14.4 29 Norte 52 Norte 0 951.9 2 81
2019-06-04 18:00:00 19.7 39 Norte 52 Nordeste 0 950.9 1.2 71
2019-06-04 17:00:00 20.9 35 Norte 52 Norte 0 950.5 0.4 72
2019-06-04 16:00:00 26.8 22 Oeste 48 Sudoeste 0 949.9 -0.5 40
2019-06-04 15:00:00 26.9 18 Sudoeste 45 Oeste 0 949.7 -1 38
2019-06-04 14:00:00 26.4 25 Sudoeste 45 Sudoeste 0 950.1 -0.7 36
2019-06-04 13:00:00 24.9 27 Sudoeste 42 Sudoeste 0 950.4 -0.9 44
2019-06-04 12:00:00 22.3 29 Sudoeste 42 Sudoeste 0 950.7 -0.5 60
2019-06-04 11:00:00 21.6 22 Sur 37 Sudoeste 0 950.8 -0.5 64
2019-06-04 10:00:00 19.4 17 Sudoeste 28 Sur 0 951.3 -0.2 70
2019-06-04 09:00:00 16.1 14 Sudoeste 21 Sudoeste 0 951.2 0.1 88
2019-06-04 08:00:00 11.7 0 Calma 8 Nordeste 0 951.3 0 99
2019-06-04 07:00:00 9.7 7 Este 11 Este 0 951.5 0 100
2019-06-04 06:00:00 9.1 5 Este 8 Este 0 951.1 -1.1 100
2019-06-04 05:00:00 9.6 5 Nordeste 8 Nordeste 0 951.3 -1.9 99
2019-06-04 04:00:00 10.9 0 Calma 8 Oeste 0 951.5 -2.7 99
2019-06-04 03:00:00 11.1 0 Calma -- -- -- 952.2 -2.6 99
2019-06-04 02:00:00 12.3 5 Nordeste 11 Este 0 953.2 -1.8 99
2019-06-04 01:00:00 13.3 4 Este 11 Nordeste 0 954.2 -0.3 98
2019-06-04 00:00:00 14.2 9 Nordeste 11 Nordeste 0 954.8 0.6 94
2019-06-03 23:00:00 15.8 0 Calma 13 Norte 0 955 1.2 88
2019-06-03 22:00:00 18.2 9 Norte 18 Norte 0 954.5 0.6 80
2019-06-03 21:00:00 20.5 11 Norte 24 Nordeste 0 954.2 0 73
2019-06-03 20:00:00 22.9 18 Norte 30 Norte 0 953.8 -0.8 66
2019-06-03 19:00:00 24.4 21 Norte 28 Norte 0 953.9 -1 62
2019-06-03 18:00:00 25.7 21 Norte 28 Nordeste 0 954.2 -1.5 57
2019-06-03 17:00:00 26.1 24 Norte 33 Nordeste 0 954.6 -1.9 55
2019-06-03 16:00:00 26.9 20 Norte 30 Nordeste 0 954.9 -2.3 50
2019-06-03 15:00:00 27.4 4 Este 17 Norte 0 955.7 -2.1 40
2019-06-03 14:00:00 25.8 5 Sudeste 15 Norte 0 956.5 -1.9 45
2019-06-03 13:00:00 23.8 5 Noroeste 13 Noroeste 0 957.2 -1.5 52
2019-06-03 12:00:00 21.9 2 Sudeste 13 Este 0 957.8 -1 54
2019-06-03 11:00:00 20.1 5 Nordeste 15 Este 0 958.4 0.3 57
2019-06-03 10:00:00 18 4 Sudeste 9 Este 0 958.7 0.3 64
2019-06-03 09:00:00 14.9 6 Noroeste 9 Noroeste 0 958.8 0.5 76
2019-06-03 08:00:00 13 0 Calma 8 Este 0 958.1 -0.3 88
2019-06-03 07:00:00 11.6 0 Calma 8 Este 0 958.4 0.3 89
2019-06-03 06:00:00 12 0 Calma 11 Nordeste 0 958.3 -0.1 87
2019-06-03 05:00:00 11.4 0 Calma 5 Sur 0 958.4 -0.6 87
2019-06-03 04:00:00 11.6 0 Calma 5 Este 0 958.1 -1.1 87
2019-06-03 03:00:00 12.4 0 Calma -- -- -- 958.4 -0.9 85
2019-06-03 02:00:00 13.2 2 Norte 11 Este 0 959 -0.3 80
2019-06-03 01:00:00 13.9 0 Calma 11 Nordeste 0 959.2 0.4 82
2019-06-03 00:00:00 14.1 0 Calma 9 Este 0 959.3 1 77
2019-06-02 23:00:00 15.8 2 Noroeste 17 Noroeste 0 959.3 1.3 63
2019-06-02 22:00:00 17.5 10 Noroeste 15 Noroeste 0 958.8 1.2 61
2019-06-02 21:00:00 21.2 4 Noroeste 26 Norte 0 958.3 1.2 51
2019-06-02 20:00:00 22.7 14 Norte 30 Norte 0 958 1.6 53
2019-06-02 19:00:00 24.1 17 Norte 24 Norte 0 957.6 1 56
2019-06-02 18:00:00 26.4 15 Noroeste 32 Norte 0 957.1 -0.1 51
2019-06-02 17:00:00 31.8 12 Norte 32 Norte 0 956.4 -1.6 40
2019-06-02 16:00:00 31.4 7 Sudoeste 15 Sudoeste 0 956.6 -2 38
2019-06-02 15:00:00 29.8 8 Sudoeste 21 Sudoeste 0 957.2 -1.7 44
2019-06-02 14:00:00 28.4 12 Sudoeste 24 Oeste 0 958 -1 46
2019-06-02 13:00:00 26.3 11 Sudoeste 22 Oeste 0 958.6 -0.7 52
2019-06-02 12:00:00 24.7 13 Sudoeste 21 Sudoeste 0 958.9 -0.4 55
2019-06-02 11:00:00 24.2 13 Sur 21 Sur 0 959 -0.4 48
2019-06-02 10:00:00 20.9 4 Oeste 8 Oeste 0 959.3 0.2 64
2019-06-02 09:00:00 17.2 0 Calma 5 Noroeste 0 959.3 0.5 76
2019-06-02 08:00:00 13.2 0 Calma 5 Nordeste 0 959.4 0.4 91
2019-06-02 07:00:00 9.4 2 Sudoeste 8 Oeste 0 959.1 0.3 97
2019-06-02 06:00:00 9.7 4 Norte 9 Nordeste 0 958.8 -0.1 96
2019-06-02 05:00:00 10 0 Calma 8 Sudoeste 0 959 0.1 96
2019-06-02 04:00:00 10.6 0 Calma 9 Nordeste 0 958.8 -0.3 93
2019-06-02 03:00:00 12 0 Calma -- -- 0 958.9 -0.5 90
2019-06-02 02:00:00 12.6 0 Calma -- -- 0 958.9 -0.3 91
2019-06-02 01:00:00 13.7 0 Calma 9 Nordeste 0 959.1 0.6 89
2019-06-02 00:00:00 15.5 5 Este 9 Nordeste 0 959.4 1.2 84
2019-06-01 23:00:00 18.3 9 Norte 13 Norte 0 959.2 1.1 76
2019-06-01 22:00:00 22.2 9 Norte 11 Nordeste 0 958.5 0.3 63
2019-06-01 21:00:00 27.8 8 Este 13 Este 0 958.2 -0.3 41
2019-06-01 20:00:00 29.3 9 Este 21 Este 0 958.1 -0.9 39
2019-06-01 19:00:00 30.2 12 Este 22 Este 0 958.2 -1.4 37
2019-06-01 18:00:00 30.5 13 Este 21 Este 0 958.5 -1.6 39
2019-06-01 17:00:00 30.8 0 Calma 17 Este 0 959 -1.9 36
2019-06-01 16:00:00 30 4 Nordeste 11 Sudeste 0 959.6 -2 41
2019-06-01 15:00:00 28.9 2 Este 18 Sudoeste 0 960.1 -1.7 43
2019-06-01 14:00:00 27.6 7 Oeste 22 Sudoeste 0 960.9 -1 50
2019-06-01 13:00:00 26.2 9 Sudoeste 21 Sudoeste 0 961.6 -0.5 53
2019-06-01 12:00:00 24.5 0 Calma 15 Nordeste 0 961.8 -0.3 57
2019-06-01 11:00:00 22.6 2 Este 9 Este 0 961.9 -0.5 62
2019-06-01 10:00:00 19.6 2 Sudoeste 9 Sudoeste 0 962.1 0.1 72
2019-06-01 09:00:00 15.6 0 Calma 2 Norte 0 962.1 0.4 87
2019-06-01 08:00:00 11.1 0 Calma -- -- 0 962.4 0.8 96
2019-06-01 07:00:00 7.7 0 Calma -- -- 0 962 0.5 100
2019-06-01 06:00:00 8 0 Calma -- -- 0 961.7 -0.1 100
2019-06-01 05:00:00 8.6 0 Calma 5 Este 0 961.6 -0.4 100
2019-06-01 04:00:00 9.7 0 Calma -- -- 0 961.5 -0.7 96
2019-06-01 03:00:00 10.8 0 Calma 4 Este 0 961.8 -0.7 98
2019-06-01 02:00:00 12.6 0 Calma 8 Nordeste 0 962 -0.3 94
2019-06-01 01:00:00 12.8 0 Calma -- -- 0 962.2 0.4 93
2019-06-01 00:00:00 15.4 0 Calma 9 Nordeste 0 962.5 0.9 87
2019-05-31 23:00:00 16.9 2 Nordeste 11 Este 0 962.3 0.8 85
2019-05-31 22:00:00 20.6 5 Sudeste 18 Norte 0 961.8 0.2 74
2019-05-31 21:00:00 24.5 14 Norte 22 Norte 0 961.6 -0.3 61
2019-05-31 20:00:00 26.6 15 Nordeste 24 Nordeste 0 961.5 -0.9 56
2019-05-31 19:00:00 28.7 8 Nordeste 17 Este 0 961.6 -1.3 34
2019-05-31 18:00:00 28.9 9 Nordeste 17 Este 0 961.9 -1.5 31
2019-05-31 17:00:00 28.6 5 Este 18 Este 0 962.4 -1.4 36
2019-05-31 16:00:00 28.4 8 Nordeste 21 Nordeste 0 962.9 -1.3 40
2019-05-31 15:00:00 27.4 4 Noroeste 17 Nordeste 0 963.4 -1 38
2019-05-31 14:00:00 26.4 2 Oeste 11 Nordeste 0 963.8 -1 41
2019-05-31 13:00:00 25.2 3 Este 11 Oeste 0 964.2 -0.9 53
2019-05-31 12:00:00 22.1 2 Sudoeste 8 Este 0 964.4 -0.7 60
2019-05-31 11:00:00 19.2 0 Calma 8 Oeste 0 964.8 -0.6 73
2019-05-31 10:00:00 15.9 0 Calma 5 Sur 0 965.1 -0.1 83
2019-05-31 09:00:00 13.4 0 Calma -- -- 0 965.1 -0.1 87
2019-05-31 08:00:00 9.7 2 Noroeste 9 Nordeste 0 965.4 0 98
2019-05-31 07:00:00 6.2 4 Este 5 Este 0 965.2 -0.3 97
2019-05-31 06:00:00 7.2 0 Calma 4 Sur 0 965.2 -0.7 100
2019-05-31 05:00:00 8 3 Oeste 9 Norte 0 965.4 -1 99
2019-05-31 04:00:00 8.4 9 Nordeste 13 Nordeste 0 965.5 -1.1 100
2019-05-31 03:00:00 8.7 5 Este 8 Este 0 965.9 -0.7 95
2019-05-31 02:00:00 10.1 0 Calma 8 Sudoeste 0 966.4 -0.1 98
2019-05-31 01:00:00 11.8 0 Calma 8 Sur 0 966.6 0.9 91
2019-05-31 00:00:00 13 4 Sur 13 Norte 0 966.6 1.1 87
2019-05-30 23:00:00 14.3 5 Norte 15 Nordeste 0 966.5 1.4 86
2019-05-30 22:00:00 17 4 Sudeste 24 Nordeste 0 965.7 0.7 73
2019-05-30 21:00:00 20.6 18 Nordeste 28 Norte 0 965.5 0.4 61
2019-05-30 20:00:00 23.8 20 Norte 28 Norte 0 965.1 -0.5 50
2019-05-30 19:00:00 25.1 18 Nordeste 30 Nordeste 0 965 -1 49
2019-05-30 18:00:00 25.7 15 Nordeste 26 Norte 0 965.1 -1.1 46
2019-05-30 17:00:00 25.6 10 Norte 21 Este 0 965.6 -1.1 42
2019-05-30 16:00:00 24.8 12 Nordeste 22 Nordeste 0 966 -1 42
2019-05-30 15:00:00 23.6 15 Nordeste 24 Norte 0 966.2 -1.2 44
2019-05-30 14:00:00 22.3 8 Este 24 Nordeste 0 966.7 -1.1 51
2019-05-30 13:00:00 20.9 9 Nordeste 21 Nordeste 0 967 -1.1 58
2019-05-30 12:00:00 17.7 0 Calma 9 Norte 0 967.4 -0.8 70
2019-05-30 11:00:00 14.1 0 Calma 9 Oeste 0 967.8 -0.2 84
2019-05-30 10:00:00 9.3 0 Calma 8 Norte 0 968.1 0.4 100
2019-05-30 09:00:00 7.4 0 Calma 9 Este 0 968.2 1 100
2019-05-30 08:00:00 6.4 6 Nordeste 8 Nordeste 0 968 0.8 100
2019-05-30 07:00:00 4.3 0 Calma 5 Nordeste 0 967.7 0.3 100
2019-05-30 06:00:00 3.1 4 Nordeste 8 Nordeste 0 967.2 -0.4 100
2019-05-30 05:00:00 3.7 0 Calma 9 Noroeste 0 967.2 -0.8 100
2019-05-30 04:00:00 4.8 4 Norte 11 Nordeste 0 967.4 -0.6 100
2019-05-30 03:00:00 4.7 6 Nordeste 9 Nordeste 0 967.6 -0.5 100
2019-05-30 02:00:00 5.4 0 Calma 4 Oeste 0 968 0.1 98
2019-05-30 01:00:00 6.1 0 Calma 4 Noroeste 0 968 0.6 97
2019-05-30 00:00:00 7.8 4 Nordeste 11 Nordeste 0 968.1 0.9 96
2019-05-29 23:00:00 9.1 9 Nordeste 11 Nordeste 0 967.9 1.1 92
2019-05-29 22:00:00 11.8 6 Nordeste 18 Norte 0 967.4 -- 83
2019-05-29 21:00:00 14.6 15 Norte 24 Norte 0 967.2 0.6 71
2019-05-29 20:00:00 16 17 Norte -- -- -- 966.8 0 65
2019-05-29 19:00:00 -- -- -- -- -- -- -- -- --
2019-05-29 18:00:00 16.7 15 Norte 30 Norte 0 966.6 -0.6 65
2019-05-29 17:00:00 16.4 15 Norte 26 Norte 0 966.8 -0.3 64
2019-05-29 16:00:00 16.6 16 Norte 28 Norte 0 966.9 -0.4 67
2019-05-29 15:00:00 14.3 13 Norte 21 Noroeste 0 967.2 0 72
2019-05-29 14:00:00 14.3 11 Noroeste 21 Norte 0 967.1 0.1 73
2019-05-29 13:00:00 13.2 14 Norte 22 Norte 0 967.3 0.5 79
2019-05-29 12:00:00 12 11 Norte 22 Nordeste 0 967.2 1.2 82
2019-05-29 11:00:00 11.5 14 Nordeste 24 Nordeste 0 967 1.7 88
2019-05-29 10:00:00 10.2 10 Nordeste 17 Norte 0.2 966.8 1.9 96
2019-05-29 09:00:00 9.9 8 Noroeste 17 Noroeste 0.3 966 1.3 96
2019-05-29 08:00:00 9.8 9 Oeste 21 Noroeste 0 965.3 0.7 96
2019-05-29 07:00:00 9.2 6 Sudoeste 13 Oeste 0 964.9 0.2 98
2019-05-29 06:00:00 9.5 8 Oeste 15 Noroeste 0 964.7 -0.1 91
2019-05-29 05:00:00 9.9 12 Noroeste 21 Noroeste 0 964.6 -0.4 88
2019-05-29 04:00:00 9.9 5 Noroeste 26 Noroeste 0 964.7 -0.1 87
2019-05-29 03:00:00 10.1 15 Noroeste 24 Noroeste 0 964.8 0.1 88
2019-05-29 02:00:00 10.2 8 Noroeste 21 Oeste 0 965 0.4 87
2019-05-29 01:00:00 10.3 16 Noroeste 24 Noroeste 0 964.8 0.8 85
2019-05-29 00:00:00 10 9 Noroeste 21 Noroeste 0 964.7 1 86
2019-05-28 23:00:00 10 12 Noroeste 30 Norte 0 964.6 1.2 78
2019-05-28 22:00:00 10.9 17 Noroeste 30 Noroeste 0 964 1 75
2019-05-28 21:00:00 11.7 17 Noroeste 30 Norte 0 963.7 0.9 72
2019-05-28 20:00:00 12.8 18 Norte 37 Noroeste 0 963.4 1 68
2019-05-28 19:00:00 13.7 19 Noroeste 37 Noroeste 0 963 0.8 67
2019-05-28 18:00:00 13.8 22 Noroeste 42 Noroeste 0 962.8 0.7 70
2019-05-28 17:00:00 13.6 22 Noroeste 46 Norte 0 962.4 0.6 70
2019-05-28 16:00:00 14.3 27 Noroeste 46 Noroeste 0 962.2 0.6 71
2019-05-28 15:00:00 12.8 27 Noroeste 41 Noroeste 0 962.1 0.6 80
2019-05-28 14:00:00 12.5 17 Noroeste 33 Noroeste 0 961.8 0.5 80
2019-05-28 13:00:00 14.1 19 Noroeste 45 Noroeste 0 961.6 0.4 78
2019-05-28 12:00:00 11 13 Noroeste 22 Norte 0.1 961.5 0.7 94
2019-05-28 11:00:00 10 7 Norte 17 Oeste 0.4 961.3 0.7 96
2019-05-28 10:00:00 9.9 13 Oeste 18 Oeste 0 961.2 1 95
2019-05-28 09:00:00 10.2 7 Oeste 18 Oeste 0 960.8 1 85
2019-05-28 08:00:00 9.9 13 Noroeste 26 Noroeste 0 960.6 0.9 86
2019-05-28 07:00:00 9.6 12 Noroeste 24 Noroeste 0 960.2 0.3 88
2019-05-28 06:00:00 9.6 19 Noroeste 30 Noroeste 0 959.8 -0.3 87
2019-05-28 05:00:00 9 10 Noroeste 18 Noroeste 0 959.7 -0.5 88
2019-05-28 04:00:00 9.6 12 Noroeste 18 Norte 0 959.9 -0.5 88
2019-05-28 03:00:00 9.1 7 Noroeste 18 Noroeste 0 960.1 -0.3 86
2019-05-28 02:00:00 9.3 7 Noroeste 22 Noroeste 0 960.2 -0.1 86
2019-05-28 01:00:00 9.8 8 Noroeste 28 Noroeste 0 960.4 0.5 86
2019-05-28 00:00:00 11.1 11 Noroeste 18 Noroeste 0 960.4 0.9 87
2019-05-27 23:00:00 11 7 Nordeste 11 Este 0 960.3 1.3 91
2019-05-27 22:00:00 12 7 Nordeste 30 Norte 0 959.9 1.4 87
2019-05-27 21:00:00 12.9 11 Norte 22 Norte 0.1 959.5 1.2 89
2019-05-27 20:00:00 13.4 10 Norte 22 Norte 0.1 959 0.9 92
2019-05-27 19:00:00 14.8 14 Norte 33 Norte 0 958.5 0.1 86
2019-05-27 18:00:00 15.1 21 Norte 32 Norte 0 958.3 -0.3 89
2019-05-27 17:00:00 17.7 17 Noroeste 32 Noroeste 0 958.1 -0.7 78
2019-05-27 16:00:00 16.3 23 Noroeste 37 Noroeste 0 958.4 -0.6 80
2019-05-27 15:00:00 15.7 5 Nordeste 15 Noroeste 0 958.6 -0.3 81
2019-05-27 14:00:00 14.9 6 Norte 21 Oeste 0 958.8 -0.3 81
2019-05-27 13:00:00 14 14 Noroeste 22 Noroeste 0 959 0 85
2019-05-27 12:00:00 14.3 17 Noroeste 26 Noroeste 0 958.9 0 86
2019-05-27 11:00:00 12.4 17 Noroeste 24 Noroeste 0 959.1 0.2 88
2019-05-27 10:00:00 12.3 11 Oeste 21 Oeste 0 959 0 88
2019-05-27 09:00:00 11.7 13 Noroeste 21 Noroeste 0 958.9 -0.2 90
2019-05-27 08:00:00 11.4 10 Noroeste 21 Noroeste 0 958.9 -0.4 91
2019-05-27 07:00:00 11 11 Noroeste 17 Noroeste 0 959 -0.6 92
2019-05-27 06:00:00 11 7 Noroeste 11 Noroeste 0 959.1 -1 92
2019-05-27 05:00:00 10.9 6 Este 18 Norte 0 959.3 -1.2 95
2019-05-27 04:00:00 11.3 4 Norte 18 Norte 0 959.6 -1.5 88
2019-05-27 03:00:00 11.6 12 Noroeste 26 Noroeste 0 960.1 -1.5 87
2019-05-27 02:00:00 11.5 8 Norte 15 Norte 0 960.5 -1.2 93
2019-05-27 01:00:00 11.6 0 Calma 21 Noroeste 0 961.1 -0.4 94
2019-05-27 00:00:00 12 13 Noroeste 24 Noroeste 0 961.6 0 87
2019-05-26 23:00:00 12.2 8 Nordeste 13 Norte 0 961.7 -0.1 88
2019-05-26 22:00:00 12.6 10 Noroeste 18 Noroeste 0 961.5 -0.5 86
2019-05-26 21:00:00 12.5 6 Nordeste 13 Nordeste 0 961.6 -0.7 91
2019-05-26 20:00:00 13.1 3 Nordeste 18 Nordeste 0 961.8 -0.6 88
2019-05-26 19:00:00 13.6 9 Norte 21 Norte 0 962 -0.8 85
2019-05-26 18:00:00 13.6 16 Norte 26 Nordeste 0 962.3 -0.7 88
2019-05-26 17:00:00 14.3 17 Nordeste 24 Nordeste 0 962.4 -0.7 83
2019-05-26 16:00:00 13.7 10 Norte 26 Nordeste 0 962.8 -0.5 84
2019-05-26 15:00:00 13.5 14 Norte 28 Noroeste 0 963 -0.5 86
2019-05-26 14:00:00 13.8 20 Noroeste 28 Noroeste 0 963.1 -0.4 84
2019-05-26 13:00:00 13.5 15 Noroeste 22 Noroeste 0 963.3 -0.1 85
2019-05-26 12:00:00 12.7 10 Noroeste 26 Noroeste 0 963.5 -0.1 89
2019-05-26 11:00:00 12.4 8 Noroeste 21 Noroeste 0 963.5 0.1 89
2019-05-26 10:00:00 12.2 5 Oeste 11 Oeste 0 963.4 0.3 90
2019-05-26 09:00:00 11.1 0 Calma -- -- 0 963.6 0.2 91
2019-05-26 08:00:00 10 0 Calma 5 Este 0 963.4 -0.2 96
2019-05-26 07:00:00 9.7 0 Calma 9 Sudoeste 0 963.1 -1 97
2019-05-26 06:00:00 9.6 5 Oeste 11 Oeste 0 963.4 -0.9 98
2019-05-26 05:00:00 9.5 4 Sudoeste 9 Este 0 963.6 -0.9 98
2019-05-26 04:00:00 9.7 3 Este 8 Nordeste 0 964.1 -0.7 99
2019-05-26 03:00:00 9.9 6 Oeste 15 Oeste 0 964.3 -0.9 97
2019-05-26 02:00:00 10.6 4 Sudoeste 15 Norte 0 964.5 -0.6 87
2019-05-26 01:00:00 10.6 6 Norte 13 Norte 0 964.8 0.3 85
2019-05-26 00:00:00 10.5 8 Nordeste 24 Norte 0 965.2 1 91